sensor_id;sensor_type;location;lat;lon;timestamp;temperature;humidity
67186;HTU21D;54116;53.518;49.398;2023-08-24T00:02:19;-4.80;118.99
67186;HTU21D;54116;53.518;49.398;2023-08-24T00:04:47;-4.81;118.99
67186;HTU21D;54116;53.518;49.398;2023-08-24T00:07:13;-4.79;118.99
67186;HTU21D;54116;53.518;49.398;2023-08-24T00:09:39;-4.81;118.99
67186;HTU21D;54116;53.518;49.398;2023-08-24T00:12:06;-4.79;118.99
67186;HTU21D;54116;53.518;49.398;2023-08-24T00:14:32;-4.81;118.99
67186;HTU21D;54116;53.518;49.398;2023-08-24T00:16:58;-4.82;118.99
67186;HTU21D;54116;53.518;49.398;2023-08-24T00:19:24;-4.84;118.99
67186;HTU21D;54116;53.518;49.398;2023-08-24T00:21:53;-4.87;118.99
67186;HTU21D;54116;53.518;49.398;2023-08-24T00:24:19;-4.76;118.99
67186;HTU21D;54116;53.518;49.398;2023-08-24T00:26:45;-4.76;118.99
67186;HTU21D;54116;53.518;49.398;2023-08-24T00:29:14;-4.87;118.99
67186;HTU21D;54116;53.518;49.398;2023-08-24T00:31:43;-4.97;118.99
67186;HTU21D;54116;53.518;49.398;2023-08-24T00:34:09;-5.01;118.99
67186;HTU21D;54116;53.518;49.398;2023-08-24T00:36:35;-4.98;118.99
67186;HTU21D;54116;53.518;49.398;2023-08-24T00:39:06;-5.01;118.99
67186;HTU21D;54116;53.518;49.398;2023-08-24T00:41:37;-5.04;118.99
67186;HTU21D;54116;53.518;49.398;2023-08-24T00:44:03;-4.99;118.99
67186;HTU21D;54116;53.518;49.398;2023-08-24T00:46:30;-5.08;118.99
67186;HTU21D;54116;53.518;49.398;2023-08-24T00:48:58;-5.16;118.99
67186;HTU21D;54116;53.518;49.398;2023-08-24T00:51:25;-5.10;118.99
67186;HTU21D;54116;53.518;49.398;2023-08-24T00:53:51;-5.17;118.99
67186;HTU21D;54116;53.518;49.398;2023-08-24T00:56:24;-5.15;118.99
67186;HTU21D;54116;53.518;49.398;2023-08-24T00:58:51;-5.14;118.99
67186;HTU21D;54116;53.518;49.398;2023-08-24T01:01:18;-5.12;118.99
67186;HTU21D;54116;53.518;49.398;2023-08-24T01:03:47;-5.11;118.99
67186;HTU21D;54116;53.518;49.398;2023-08-24T01:06:13;-5.07;118.99
67186;HTU21D;54116;53.518;49.398;2023-08-24T01:08:39;-5.08;118.99
67186;HTU21D;54116;53.518;49.398;2023-08-24T01:11:20;-5.02;118.99
67186;HTU21D;54116;53.518;49.398;2023-08-24T01:16:31;-5.01;118.99
67186;HTU21D;54116;53.518;49.398;2023-08-24T01:18:59;-4.97;118.99
67186;HTU21D;54116;53.518;49.398;2023-08-24T01:21:29;-5.00;118.99
67186;HTU21D;54116;53.518;49.398;2023-08-24T01:27:00;-4.98;118.99
67186;HTU21D;54116;53.518;49.398;2023-08-24T01:29:32;-4.96;118.99
67186;HTU21D;54116;53.518;49.398;2023-08-24T01:32:02;-4.94;118.99
67186;HTU21D;54116;53.518;49.398;2023-08-24T01:34:31;-4.90;118.99
67186;HTU21D;54116;53.518;49.398;2023-08-24T01:37:01;-4.86;118.99
67186;HTU21D;54116;53.518;49.398;2023-08-24T01:39:38;-4.78;118.99
67186;HTU21D;54116;53.518;49.398;2023-08-24T01:42:09;-4.81;118.99
67186;HTU21D;54116;53.518;49.398;2023-08-24T01:44:39;-4.85;118.99
67186;HTU21D;54116;53.518;49.398;2023-08-24T01:47:09;-4.82;118.99
67186;HTU21D;54116;53.518;49.398;2023-08-24T01:49:37;-4.78;118.99
67186;HTU21D;54116;53.518;49.398;2023-08-24T01:52:04;-4.76;118.99
67186;HTU21D;54116;53.518;49.398;2023-08-24T01:54:32;-4.74;118.99
67186;HTU21D;54116;53.518;49.398;2023-08-24T01:57:04;-4.69;118.99
67186;HTU21D;54116;53.518;49.398;2023-08-24T01:59:30;-4.65;118.99
67186;HTU21D;54116;53.518;49.398;2023-08-24T02:01:56;-4.68;118.99
67186;HTU21D;54116;53.518;49.398;2023-08-24T02:04:25;-4.68;118.99
67186;HTU21D;54116;53.518;49.398;2023-08-24T02:06:51;-4.68;118.99
67186;HTU21D;54116;53.518;49.398;2023-08-24T02:09:17;-4.70;118.99
67186;HTU21D;54116;53.518;49.398;2023-08-24T02:11:43;-4.67;118.99
67186;HTU21D;54116;53.518;49.398;2023-08-24T02:14:09;-4.58;118.99
67186;HTU21D;54116;53.518;49.398;2023-08-24T02:16:41;-4.56;118.99
67186;HTU21D;54116;53.518;49.398;2023-08-24T02:19:10;-4.48;118.99
67186;HTU21D;54116;53.518;49.398;2023-08-24T02:21:36;-4.36;118.99
67186;HTU21D;54116;53.518;49.398;2023-08-24T02:24:04;-4.30;118.99
67186;HTU21D;54116;53.518;49.398;2023-08-24T02:26:30;-4.25;118.99
67186;HTU21D;54116;53.518;49.398;2023-08-24T02:28:57;-4.09;118.99
67186;HTU21D;54116;53.518;49.398;2023-08-24T02:31:23;-4.08;118.99
67186;HTU21D;54116;53.518;49.398;2023-08-24T02:33:49;-4.14;118.99
67186;HTU21D;54116;53.518;49.398;2023-08-24T02:36:21;-4.15;118.99
67186;HTU21D;54116;53.518;49.398;2023-08-24T02:38:47;-4.11;118.99
67186;HTU21D;54116;53.518;49.398;2023-08-24T02:41:13;-4.09;118.99
67186;HTU21D;54116;53.518;49.398;2023-08-24T02:43:40;-4.11;118.99
67186;HTU21D;54116;53.518;49.398;2023-08-24T02:46:09;-4.06;118.99
67186;HTU21D;54116;53.518;49.398;2023-08-24T02:48:36;-3.99;118.99
67186;HTU21D;54116;53.518;49.398;2023-08-24T02:51:03;-3.92;118.99
67186;HTU21D;54116;53.518;49.398;2023-08-24T02:53:30;-3.80;118.99
67186;HTU21D;54116;53.518;49.398;2023-08-24T02:55:59;-3.71;118.99
67186;HTU21D;54116;53.518;49.398;2023-08-24T02:58:25;-3.67;118.99
67186;HTU21D;54116;53.518;49.398;2023-08-24T03:00:52;-3.65;118.99
67186;HTU21D;54116;53.518;49.398;2023-08-24T03:03:18;-3.66;118.99
67186;HTU21D;54116;53.518;49.398;2023-08-24T03:06:07;-3.61;118.99
67186;HTU21D;54116;53.518;49.398;2023-08-24T03:08:36;-3.53;118.99
67186;HTU21D;54116;53.518;49.398;2023-08-24T03:11:02;-3.50;118.99
67186;HTU21D;54116;53.518;49.398;2023-08-24T03:13:29;-3.47;118.99
67186;HTU21D;54116;53.518;49.398;2023-08-24T03:15:56;-3.50;118.99
67186;HTU21D;54116;53.518;49.398;2023-08-24T03:18:22;-3.47;118.99
67186;HTU21D;54116;53.518;49.398;2023-08-24T03:20:49;-3.39;118.99
67186;HTU21D;54116;53.518;49.398;2023-08-24T03:23:16;-3.25;118.99
67186;HTU21D;54116;53.518;49.398;2023-08-24T03:25:42;-3.23;118.99
67186;HTU21D;54116;53.518;49.398;2023-08-24T03:28:09;-3.25;118.99
67186;HTU21D;54116;53.518;49.398;2023-08-24T03:30:38;-3.35;118.99
67186;HTU21D;54116;53.518;49.398;2023-08-24T03:33:05;-3.39;118.99
67186;HTU21D;54116;53.518;49.398;2023-08-24T03:35:32;-3.39;118.99
67186;HTU21D;54116;53.518;49.398;2023-08-24T03:37:58;-3.35;118.99
67186;HTU21D;54116;53.518;49.398;2023-08-24T03:40:24;-3.32;118.99
67186;HTU21D;54116;53.518;49.398;2023-08-24T03:42:51;-3.30;118.99
67186;HTU21D;54116;53.518;49.398;2023-08-24T03:45:27;-3.30;118.99
67186;HTU21D;54116;53.518;49.398;2023-08-24T03:47:53;-3.30;118.99
67186;HTU21D;54116;53.518;49.398;2023-08-24T03:50:22;-3.32;118.99
67186;HTU21D;54116;53.518;49.398;2023-08-24T03:52:52;-3.30;118.99
67186;HTU21D;54116;53.518;49.398;2023-08-24T03:55:22;-3.25;118.99
67186;HTU21D;54116;53.518;49.398;2023-08-24T03:57:54;-3.25;118.99
67186;HTU21D;54116;53.518;49.398;2023-08-24T04:00:20;-3.25;118.99
67186;HTU21D;54116;53.518;49.398;2023-08-24T04:02:46;-3.10;118.99
67186;HTU21D;54116;53.518;49.398;2023-08-24T04:05:12;-3.16;118.99
67186;HTU21D;54116;53.518;49.398;2023-08-24T04:07:38;-3.10;118.99
67186;HTU21D;54116;53.518;49.398;2023-08-24T04:10:09;-3.10;118.99
67186;HTU21D;54116;53.518;49.398;2023-08-24T04:12:35;-3.12;118.99
67186;HTU21D;54116;53.518;49.398;2023-08-24T04:15:05;-3.16;118.99
67186;HTU21D;54116;53.518;49.398;2023-08-24T04:17:37;-3.24;118.99
67186;HTU21D;54116;53.518;49.398;2023-08-24T04:20:03;-3.22;118.99
67186;HTU21D;54116;53.518;49.398;2023-08-24T04:22:32;-3.27;118.99
67186;HTU21D;54116;53.518;49.398;2023-08-24T04:24:58;-3.31;118.99
67186;HTU21D;54116;53.518;49.398;2023-08-24T04:27:24;-3.31;118.99
67186;HTU21D;54116;53.518;49.398;2023-08-24T04:29:50;-3.30;118.99
67186;HTU21D;54116;53.518;49.398;2023-08-24T04:32:17;-3.30;118.99
67186;HTU21D;54116;53.518;49.398;2023-08-24T04:34:43;-3.22;118.99
67186;HTU21D;54116;53.518;49.398;2023-08-24T04:37:12;-3.13;118.99
67186;HTU21D;54116;53.518;49.398;2023-08-24T04:39:38;-2.97;118.99
67186;HTU21D;54116;53.518;49.398;2023-08-24T04:42:04;-2.92;118.99
67186;HTU21D;54116;53.518;49.398;2023-08-24T04:44:31;-2.93;118.99
67186;HTU21D;54116;53.518;49.398;2023-08-24T04:46:57;-2.95;118.99
67186;HTU21D;54116;53.518;49.398;2023-08-24T04:49:26;-2.87;118.99
67186;HTU21D;54116;53.518;49.398;2023-08-24T04:51:52;-2.78;118.99
67186;HTU21D;54116;53.518;49.398;2023-08-24T04:54:18;-2.80;118.99
67186;HTU21D;54116;53.518;49.398;2023-08-24T04:56:44;-2.76;118.99
67186;HTU21D;54116;53.518;49.398;2023-08-24T04:59:10;-2.66;118.99
67186;HTU21D;54116;53.518;49.398;2023-08-24T05:01:42;-2.79;118.99
67186;HTU21D;54116;53.518;49.398;2023-08-24T05:04:08;-2.68;118.99
67186;HTU21D;54116;53.518;49.398;2023-08-24T05:06:37;-2.76;118.99
67186;HTU21D;54116;53.518;49.398;2023-08-24T05:09:03;-2.75;118.99
67186;HTU21D;54116;53.518;49.398;2023-08-24T05:11:29;-2.69;118.99
67186;HTU21D;54116;53.518;49.398;2023-08-24T05:13:58;-2.67;118.99
67186;HTU21D;54116;53.518;49.398;2023-08-24T05:16:24;-2.62;118.99
67186;HTU21D;54116;53.518;49.398;2023-08-24T05:18:51;-2.58;118.99
67186;HTU21D;54116;53.518;49.398;2023-08-24T05:21:17;-2.54;118.99
67186;HTU21D;54116;53.518;49.398;2023-08-24T05:23:43;-2.42;118.99
67186;HTU21D;54116;53.518;49.398;2023-08-24T05:26:12;-2.36;118.99
67186;HTU21D;54116;53.518;49.398;2023-08-24T05:28:38;-2.33;118.99
67186;HTU21D;54116;53.518;49.398;2023-08-24T05:31:04;-2.46;118.99
67186;HTU21D;54116;53.518;49.398;2023-08-24T05:33:33;-2.48;118.99
67186;HTU21D;54116;53.518;49.398;2023-08-24T05:35:59;-2.59;118.99
67186;HTU21D;54116;53.518;49.398;2023-08-24T05:38:26;-2.71;118.99
67186;HTU21D;54116;53.518;49.398;2023-08-24T05:40:54;-2.76;118.99
67186;HTU21D;54116;53.518;49.398;2023-08-24T05:43:20;-2.72;118.99
67186;HTU21D;54116;53.518;49.398;2023-08-24T05:45:46;-2.71;118.99
67186;HTU21D;54116;53.518;49.398;2023-08-24T05:48:12;-2.76;118.99
67186;HTU21D;54116;53.518;49.398;2023-08-24T05:50:47;-2.77;118.99
67186;HTU21D;54116;53.518;49.398;2023-08-24T05:53:13;-2.69;118.99
67186;HTU21D;54116;53.518;49.398;2023-08-24T05:55:40;-2.76;118.99
67186;HTU21D;54116;53.518;49.398;2023-08-24T05:58:08;-2.75;118.99
67186;HTU21D;54116;53.518;49.398;2023-08-24T06:00:38;-2.72;118.99
67186;HTU21D;54116;53.518;49.398;2023-08-24T06:03:06;-2.83;118.99
67186;HTU21D;54116;53.518;49.398;2023-08-24T06:05:32;-2.89;118.99
67186;HTU21D;54116;53.518;49.398;2023-08-24T06:07:59;-2.96;118.99
67186;HTU21D;54116;53.518;49.398;2023-08-24T06:10:25;-2.96;118.99
67186;HTU21D;54116;53.518;49.398;2023-08-24T06:12:52;-2.96;118.99
67186;HTU21D;54116;53.518;49.398;2023-08-24T06:15:27;-2.95;118.99
67186;HTU21D;54116;53.518;49.398;2023-08-24T06:17:53;-2.84;118.99
67186;HTU21D;54116;53.518;49.398;2023-08-24T06:20:27;-2.80;118.99
67186;HTU21D;54116;53.518;49.398;2023-08-24T06:22:54;-2.87;118.99
67186;HTU21D;54116;53.518;49.398;2023-08-24T06:25:24;-2.90;118.99
67186;HTU21D;54116;53.518;49.398;2023-08-24T06:27:53;-2.97;118.99
67186;HTU21D;54116;53.518;49.398;2023-08-24T06:30:19;-2.95;118.99
67186;HTU21D;54116;53.518;49.398;2023-08-24T06:32:48;-3.02;118.99
67186;HTU21D;54116;53.518;49.398;2023-08-24T06:35:17;-3.05;118.99
67186;HTU21D;54116;53.518;49.398;2023-08-24T06:37:44;-3.05;118.99
67186;HTU21D;54116;53.518;49.398;2023-08-24T06:40:10;-2.96;118.99
67186;HTU21D;54116;53.518;49.398;2023-08-24T06:42:40;-3.09;118.99
67186;HTU21D;54116;53.518;49.398;2023-08-24T06:45:09;-3.04;118.99
67186;HTU21D;54116;53.518;49.398;2023-08-24T06:47:42;-3.18;118.99
67186;HTU21D;54116;53.518;49.398;2023-08-24T06:50:08;-3.21;118.99
67186;HTU21D;54116;53.518;49.398;2023-08-24T06:52:34;-3.31;118.99
67186;HTU21D;54116;53.518;49.398;2023-08-24T06:55:04;-3.33;118.99
67186;HTU21D;54116;53.518;49.398;2023-08-24T06:57:31;-3.35;118.99
67186;HTU21D;54116;53.518;49.398;2023-08-24T06:59:57;-3.36;118.99
67186;HTU21D;54116;53.518;49.398;2023-08-24T07:02:23;-3.41;118.99
67186;HTU21D;54116;53.518;49.398;2023-08-24T07:04:49;-3.55;118.99
67186;HTU21D;54116;53.518;49.398;2023-08-24T07:07:15;-3.62;118.99
67186;HTU21D;54116;53.518;49.398;2023-08-24T07:09:49;-3.63;118.99
67186;HTU21D;54116;53.518;49.398;2023-08-24T07:12:15;-3.61;118.99
67186;HTU21D;54116;53.518;49.398;2023-08-24T07:14:50;-3.56;118.99
67186;HTU21D;54116;53.518;49.398;2023-08-24T07:17:16;-3.57;118.99
67186;HTU21D;54116;53.518;49.398;2023-08-24T07:19:48;-3.57;118.99
67186;HTU21D;54116;53.518;49.398;2023-08-24T07:22:14;-3.53;118.99
67186;HTU21D;54116;53.518;49.398;2023-08-24T07:24:46;-3.54;118.99
67186;HTU21D;54116;53.518;49.398;2023-08-24T07:27:12;-3.55;118.99
67186;HTU21D;54116;53.518;49.398;2023-08-24T07:29:39;-3.51;118.99
67186;HTU21D;54116;53.518;49.398;2023-08-24T07:32:11;-3.47;118.99
67186;HTU21D;54116;53.518;49.398;2023-08-24T07:34:37;-3.42;118.99
67186;HTU21D;54116;53.518;49.398;2023-08-24T07:37:06;-3.41;118.99
67186;HTU21D;54116;53.518;49.398;2023-08-24T07:39:33;-3.36;118.99
67186;HTU21D;54116;53.518;49.398;2023-08-24T07:42:05;-3.22;118.99
67186;HTU21D;54116;53.518;49.398;2023-08-24T07:44:32;-3.10;118.99
67186;HTU21D;54116;53.518;49.398;2023-08-24T07:46:58;-3.15;118.99
67186;HTU21D;54116;53.518;49.398;2023-08-24T07:49:24;-3.07;118.99
67186;HTU21D;54116;53.518;49.398;2023-08-24T07:51:53;-2.89;118.99
67186;HTU21D;54116;53.518;49.398;2023-08-24T07:54:23;-2.95;118.99
67186;HTU21D;54116;53.518;49.398;2023-08-24T07:56:49;-2.83;118.99
67186;HTU21D;54116;53.518;49.398;2023-08-24T07:59:15;-2.80;118.99
67186;HTU21D;54116;53.518;49.398;2023-08-24T08:02:00;-2.69;118.99
67186;HTU21D;54116;53.518;49.398;2023-08-24T08:04:29;-2.76;118.99
67186;HTU21D;54116;53.518;49.398;2023-08-24T08:06:58;-2.79;118.99
67186;HTU21D;54116;53.518;49.398;2023-08-24T08:09:28;-2.66;118.99
67186;HTU21D;54116;53.518;49.398;2023-08-24T08:11:59;-2.83;118.99
67186;HTU21D;54116;53.518;49.398;2023-08-24T08:14:26;-2.93;118.99
67186;HTU21D;54116;53.518;49.398;2023-08-24T08:16:56;-3.16;118.99
67186;HTU21D;54116;53.518;49.398;2023-08-24T08:19:24;-3.09;118.99
67186;HTU21D;54116;53.518;49.398;2023-08-24T08:21:54;-3.08;118.99
67186;HTU21D;54116;53.518;49.398;2023-08-24T08:24:20;-3.12;118.99
67186;HTU21D;54116;53.518;49.398;2023-08-24T08:26:46;-3.19;118.99
67186;HTU21D;54116;53.518;49.398;2023-08-24T08:29:13;-3.13;118.99
67186;HTU21D;54116;53.518;49.398;2023-08-24T08:31:40;-3.21;118.99
67186;HTU21D;54116;53.518;49.398;2023-08-24T08:34:15;-3.30;118.99
67186;HTU21D;54116;53.518;49.398;2023-08-24T08:36:41;-3.35;118.99
67186;HTU21D;54116;53.518;49.398;2023-08-24T08:39:13;-3.39;118.99
67186;HTU21D;54116;53.518;49.398;2023-08-24T08:41:46;-3.43;118.99
67186;HTU21D;54116;53.518;49.398;2023-08-24T08:44:16;-3.43;118.99
67186;HTU21D;54116;53.518;49.398;2023-08-24T08:46:42;-3.48;118.99
67186;HTU21D;54116;53.518;49.398;2023-08-24T08:49:11;-3.53;118.99
67186;HTU21D;54116;53.518;49.398;2023-08-24T08:51:38;-3.54;118.99
67186;HTU21D;54116;53.518;49.398;2023-08-24T08:54:08;-3.55;118.99
67186;HTU21D;54116;53.518;49.398;2023-08-24T08:56:38;-3.51;118.99
67186;HTU21D;54116;53.518;49.398;2023-08-24T08:59:08;-3.55;118.99
67186;HTU21D;54116;53.518;49.398;2023-08-24T09:01:41;-3.63;118.99
67186;HTU21D;54116;53.518;49.398;2023-08-24T09:04:07;-3.68;118.99
67186;HTU21D;54116;53.518;49.398;2023-08-24T09:06:34;-3.75;118.99
67186;HTU21D;54116;53.518;49.398;2023-08-24T09:09:01;-3.61;118.99
67186;HTU21D;54116;53.518;49.398;2023-08-24T09:11:31;-3.74;118.99
67186;HTU21D;54116;53.518;49.398;2023-08-24T09:13:59;-3.71;118.99
67186;HTU21D;54116;53.518;49.398;2023-08-24T09:16:29;-3.76;118.99
67186;HTU21D;54116;53.518;49.398;2023-08-24T09:19:01;-3.69;118.99
67186;HTU21D;54116;53.518;49.398;2023-08-24T09:21:31;-3.55;118.99
67186;HTU21D;54116;53.518;49.398;2023-08-24T09:23:57;-3.51;118.99
67186;HTU21D;54116;53.518;49.398;2023-08-24T09:26:31;-3.46;118.99
67186;HTU21D;54116;53.518;49.398;2023-08-24T09:28:58;-3.45;118.99
67186;HTU21D;54116;53.518;49.398;2023-08-24T09:31:35;-3.51;118.99
67186;HTU21D;54116;53.518;49.398;2023-08-24T09:34:03;-3.64;118.99
67186;HTU21D;54116;53.518;49.398;2023-08-24T09:36:33;-3.56;118.99
67186;HTU21D;54116;53.518;49.398;2023-08-24T09:39:01;-3.69;118.99
67186;HTU21D;54116;53.518;49.398;2023-08-24T09:41:41;-3.69;118.99
67186;HTU21D;54116;53.518;49.398;2023-08-24T09:44:10;-3.66;118.99
67186;HTU21D;54116;53.518;49.398;2023-08-24T09:46:41;-3.56;118.99
67186;HTU21D;54116;53.518;49.398;2023-08-24T09:49:09;-3.60;118.99
67186;HTU21D;54116;53.518;49.398;2023-08-24T09:51:40;-3.65;118.99
67186;HTU21D;54116;53.518;49.398;2023-08-24T09:54:10;-3.67;118.99
67186;HTU21D;54116;53.518;49.398;2023-08-24T09:56:40;-3.69;118.99
67186;HTU21D;54116;53.518;49.398;2023-08-24T09:59:14;-3.67;118.99
67186;HTU21D;54116;53.518;49.398;2023-08-24T10:01:45;-3.71;118.99
67186;HTU21D;54116;53.518;49.398;2023-08-24T10:04:16;-3.83;118.99
67186;HTU21D;54116;53.518;49.398;2023-08-24T10:06:44;-3.89;118.99
67186;HTU21D;54116;53.518;49.398;2023-08-24T10:09:39;-3.97;118.99
67186;HTU21D;54116;53.518;49.398;2023-08-24T10:12:08;-3.96;118.99
67186;HTU21D;54116;53.518;49.398;2023-08-24T10:14:50;-4.09;118.99
67186;HTU21D;54116;53.518;49.398;2023-08-24T10:17:22;-4.10;118.99
67186;HTU21D;54116;53.518;49.398;2023-08-24T10:19:48;-4.09;118.99
67186;HTU21D;54116;53.518;49.398;2023-08-24T10:22:17;-4.09;118.99
67186;HTU21D;54116;53.518;49.398;2023-08-24T10:25:03;-3.99;118.99
67186;HTU21D;54116;53.518;49.398;2023-08-24T10:27:51;-3.89;118.99
67186;HTU21D;54116;53.518;49.398;2023-08-24T10:30:23;-3.84;118.99
67186;HTU21D;54116;53.518;49.398;2023-08-24T10:32:49;-3.86;118.99
67186;HTU21D;54116;53.518;49.398;2023-08-24T10:35:19;-3.83;118.99
67186;HTU21D;54116;53.518;49.398;2023-08-24T10:37:47;-3.86;118.99
67186;HTU21D;54116;53.518;49.398;2023-08-24T10:40:36;-3.96;118.99
67186;HTU21D;54116;53.518;49.398;2023-08-24T10:43:05;-3.82;118.99
67186;HTU21D;54116;53.518;49.398;2023-08-24T10:46:00;-3.84;118.99
67186;HTU21D;54116;53.518;49.398;2023-08-24T10:53:39;-3.94;118.99
67186;HTU21D;54116;53.518;49.398;2023-08-24T10:56:13;-3.92;118.99
67186;HTU21D;54116;53.518;49.398;2023-08-24T10:58:45;-3.89;118.99
67186;HTU21D;54116;53.518;49.398;2023-08-24T11:01:15;-3.92;118.99
67186;HTU21D;54116;53.518;49.398;2023-08-24T11:03:55;-3.90;118.99
67186;HTU21D;54116;53.518;49.398;2023-08-24T11:06:25;-3.95;118.99
67186;HTU21D;54116;53.518;49.398;2023-08-24T11:09:08;-4.05;118.99
67186;HTU21D;54116;53.518;49.398;2023-08-24T11:11:40;-4.12;118.99
67186;HTU21D;54116;53.518;49.398;2023-08-24T11:14:19;-4.15;118.99
67186;HTU21D;54116;53.518;49.398;2023-08-24T11:16:50;-4.20;118.99
67186;HTU21D;54116;53.518;49.398;2023-08-24T11:19:17;-4.24;118.99
67186;HTU21D;54116;53.518;49.398;2023-08-24T11:21:49;-4.14;118.99
67186;HTU21D;54116;53.518;49.398;2023-08-24T11:24:17;-4.08;118.99
67186;HTU21D;54116;53.518;49.398;2023-08-24T11:26:45;-3.98;118.99
67186;HTU21D;54116;53.518;49.398;2023-08-24T11:29:12;-3.99;118.99
67186;HTU21D;54116;53.518;49.398;2023-08-24T11:31:39;-4.09;118.99
67186;HTU21D;54116;53.518;49.398;2023-08-24T11:34:05;-4.12;118.99
67186;HTU21D;54116;53.518;49.398;2023-08-24T11:36:43;-4.11;118.99
67186;HTU21D;54116;53.518;49.398;2023-08-24T11:39:15;-4.25;118.99
67186;HTU21D;54116;53.518;49.398;2023-08-24T11:41:42;-4.09;118.99
67186;HTU21D;54116;53.518;49.398;2023-08-24T11:44:08;-4.07;118.99
67186;HTU21D;54116;53.518;49.398;2023-08-24T11:46:37;-3.98;118.99
67186;HTU21D;54116;53.518;49.398;2023-08-24T11:49:06;-3.75;118.99
67186;HTU21D;54116;53.518;49.398;2023-08-24T11:51:36;-3.68;118.99
67186;HTU21D;54116;53.518;49.398;2023-08-24T11:54:03;-3.57;118.99
67186;HTU21D;54116;53.518;49.398;2023-08-24T11:56:30;-3.46;118.99
67186;HTU21D;54116;53.518;49.398;2023-08-24T11:58:56;-3.37;118.99
67186;HTU21D;54116;53.518;49.398;2023-08-24T12:01:22;-3.40;118.99
67186;HTU21D;54116;53.518;49.398;2023-08-24T12:03:53;-3.40;118.99
67186;HTU21D;54116;53.518;49.398;2023-08-24T12:06:19;-3.49;118.99
67186;HTU21D;54116;53.518;49.398;2023-08-24T12:08:46;-3.39;118.99
67186;HTU21D;54116;53.518;49.398;2023-08-24T12:11:20;-3.33;118.99
67186;HTU21D;54116;53.518;49.398;2023-08-24T12:13:52;-3.28;118.99
67186;HTU21D;54116;53.518;49.398;2023-08-24T12:16:20;-3.25;118.99
67186;HTU21D;54116;53.518;49.398;2023-08-24T12:19:01;-3.32;118.99
67186;HTU21D;54116;53.518;49.398;2023-08-24T12:21:31;-3.38;118.99
67186;HTU21D;54116;53.518;49.398;2023-08-24T12:24:06;-3.30;118.99
67186;HTU21D;54116;53.518;49.398;2023-08-24T12:26:35;-3.25;118.99
67186;HTU21D;54116;53.518;49.398;2023-08-24T12:29:07;-3.23;118.99
67186;HTU21D;54116;53.518;49.398;2023-08-24T12:31:45;-3.27;118.99
67186;HTU21D;54116;53.518;49.398;2023-08-24T12:34:14;-3.23;118.99
67186;HTU21D;54116;53.518;49.398;2023-08-24T12:36:44;-3.34;118.99
67186;HTU21D;54116;53.518;49.398;2023-08-24T12:39:11;-3.37;118.99
67186;HTU21D;54116;53.518;49.398;2023-08-24T12:41:41;-3.25;118.99
67186;HTU21D;54116;53.518;49.398;2023-08-24T12:44:07;-3.21;118.99
67186;HTU21D;54116;53.518;49.398;2023-08-24T12:46:34;-2.97;118.99
67186;HTU21D;54116;53.518;49.398;2023-08-24T12:49:03;-2.88;118.99
67186;HTU21D;54116;53.518;49.398;2023-08-24T12:51:30;-2.88;118.99
67186;HTU21D;54116;53.518;49.398;2023-08-24T12:53:56;-2.89;118.99
67186;HTU21D;54116;53.518;49.398;2023-08-24T12:56:22;-2.92;118.99
67186;HTU21D;54116;53.518;49.398;2023-08-24T12:58:48;-2.87;118.99
67186;HTU21D;54116;53.518;49.398;2023-08-24T13:01:14;-2.81;118.99
67186;HTU21D;54116;53.518;49.398;2023-08-24T13:03:40;-2.81;118.99
67186;HTU21D;54116;53.518;49.398;2023-08-24T13:06:07;-2.63;118.99
67186;HTU21D;54116;53.518;49.398;2023-08-24T13:08:33;-2.71;118.99
67186;HTU21D;54116;53.518;49.398;2023-08-24T13:10:59;-2.90;118.99
67186;HTU21D;54116;53.518;49.398;2023-08-24T13:13:25;-3.00;118.99
67186;HTU21D;54116;53.518;49.398;2023-08-24T13:15:51;-3.08;118.99
67186;HTU21D;54116;53.518;49.398;2023-08-24T13:18:17;-3.10;118.99
67186;HTU21D;54116;53.518;49.398;2023-08-24T13:20:44;-3.26;118.99
67186;HTU21D;54116;53.518;49.398;2023-08-24T13:23:15;-3.32;118.99
67186;HTU21D;54116;53.518;49.398;2023-08-24T13:25:42;-3.17;118.99
67186;HTU21D;54116;53.518;49.398;2023-08-24T13:28:16;-3.10;118.99
67186;HTU21D;54116;53.518;49.398;2023-08-24T13:30:42;-3.06;118.99
67186;HTU21D;54116;53.518;49.398;2023-08-24T13:33:08;-3.02;118.99
67186;HTU21D;54116;53.518;49.398;2023-08-24T13:35:34;-2.98;118.99
67186;HTU21D;54116;53.518;49.398;2023-08-24T13:38:00;-3.10;118.99
67186;HTU21D;54116;53.518;49.398;2023-08-24T13:40:26;-3.23;118.99
67186;HTU21D;54116;53.518;49.398;2023-08-24T13:42:52;-3.28;118.99
67186;HTU21D;54116;53.518;49.398;2023-08-24T13:45:18;-3.35;118.99
67186;HTU21D;54116;53.518;49.398;2023-08-24T13:47:49;-3.15;118.99
67186;HTU21D;54116;53.518;49.398;2023-08-24T13:50:18;-2.87;118.99
67186;HTU21D;54116;53.518;49.398;2023-08-24T13:52:44;-2.86;118.99
67186;HTU21D;54116;53.518;49.398;2023-08-24T13:55:10;-3.09;118.99
67186;HTU21D;54116;53.518;49.398;2023-08-24T13:57:42;-3.34;118.99
67186;HTU21D;54116;53.518;49.398;2023-08-24T14:00:15;-3.45;118.99
67186;HTU21D;54116;53.518;49.398;2023-08-24T14:02:42;-3.45;118.99
67186;HTU21D;54116;53.518;49.398;2023-08-24T14:05:08;-3.46;118.99
67186;HTU21D;54116;53.518;49.398;2023-08-24T14:07:35;-3.49;118.99
67186;HTU21D;54116;53.518;49.398;2023-08-24T14:10:01;-3.50;118.99
67186;HTU21D;54116;53.518;49.398;2023-08-24T14:12:31;-3.52;118.99
67186;HTU21D;54116;53.518;49.398;2023-08-24T14:14:58;-3.52;118.99
67186;HTU21D;54116;53.518;49.398;2023-08-24T14:17:24;-3.58;118.99
67186;HTU21D;54116;53.518;49.398;2023-08-24T14:19:50;-3.53;118.99
67186;HTU21D;54116;53.518;49.398;2023-08-24T14:22:16;-3.57;118.99
67186;HTU21D;54116;53.518;49.398;2023-08-24T14:24:42;-3.62;118.99
67186;HTU21D;54116;53.518;49.398;2023-08-24T14:27:08;-3.74;118.99
67186;HTU21D;54116;53.518;49.398;2023-08-24T14:29:34;-3.77;118.99
67186;HTU21D;54116;53.518;49.398;2023-08-24T14:32:00;-3.84;118.99
67186;HTU21D;54116;53.518;49.398;2023-08-24T14:34:27;-3.79;118.99
67186;HTU21D;54116;53.518;49.398;2023-08-24T14:36:53;-3.79;118.99
67186;HTU21D;54116;53.518;49.398;2023-08-24T14:39:21;-3.85;118.99
67186;HTU21D;54116;53.518;49.398;2023-08-24T14:41:47;-3.90;118.99
67186;HTU21D;54116;53.518;49.398;2023-08-24T14:44:13;-3.91;118.99
67186;HTU21D;54116;53.518;49.398;2023-08-24T14:46:42;-3.91;118.99
67186;HTU21D;54116;53.518;49.398;2023-08-24T14:49:09;-3.95;118.99
67186;HTU21D;54116;53.518;49.398;2023-08-24T14:51:35;-3.98;118.99
67186;HTU21D;54116;53.518;49.398;2023-08-24T14:54:01;-4.02;118.99
67186;HTU21D;54116;53.518;49.398;2023-08-24T14:56:27;-3.99;118.99
67186;HTU21D;54116;53.518;49.398;2023-08-24T14:58:54;-4.04;118.99
67186;HTU21D;54116;53.518;49.398;2023-08-24T15:01:23;-4.00;118.99
67186;HTU21D;54116;53.518;49.398;2023-08-24T15:03:50;-4.05;118.99
67186;HTU21D;54116;53.518;49.398;2023-08-24T15:06:16;-4.00;118.99
67186;HTU21D;54116;53.518;49.398;2023-08-24T15:08:45;-4.04;118.99